createdAt,value
2015-09-18T00:00:07.260Z,3.17
2015-09-18T00:00:19.666Z,3.06
2015-09-18T00:00:32.073Z,3.14
2015-09-18T00:00:44.494Z,3.05
2015-09-18T00:00:56.903Z,3.14
2015-09-18T00:01:09.309Z,3.08
2015-09-18T00:01:21.715Z,2.95
2015-09-18T00:01:34.121Z,2.95
2015-09-18T00:01:46.512Z,2.9
2015-09-18T00:01:58.919Z,2.91
2015-09-18T00:02:11.326Z,2.93
2015-09-18T00:02:23.732Z,2.98
2015-09-18T00:02:36.154Z,2.85
2015-09-18T00:02:48.544Z,2.81
2015-09-18T00:03:00.953Z,2.9
2015-09-18T00:03:13.343Z,2.93
2015-09-18T00:03:25.749Z,2.93
2015-09-18T00:03:38.156Z,2.87
2015-09-18T00:03:50.562Z,2.84
2015-09-18T00:04:03.001Z,2.8
2015-09-18T00:04:15.392Z,2.83
2015-09-18T00:04:27.783Z,2.9
2015-09-18T00:04:40.189Z,2.76
2015-09-18T00:04:52.580Z,2.77
2015-09-18T00:05:04.988Z,2.72
2015-09-18T00:05:17.410Z,2.76
2015-09-18T00:05:29.816Z,2.72
2015-09-18T00:05:42.207Z,2.62
2015-09-18T00:05:54.613Z,2.67
2015-09-18T00:06:07.005Z,2.69
2015-09-18T00:06:19.412Z,2.54
2015-09-18T00:06:31.818Z,2.62
2015-09-18T00:06:44.240Z,2.52
2015-09-18T00:06:56.630Z,2.55
2015-09-18T00:07:09.039Z,2.63
2015-09-18T00:07:21.429Z,2.58
2015-09-18T00:07:33.820Z,2.54
2015-09-18T00:07:46.226Z,2.49
2015-09-18T00:07:58.648Z,2.41
2015-09-18T00:08:10.900Z,2.42
2015-09-18T00:08:23.291Z,2.4
2015-09-18T00:08:35.713Z,2.52
2015-09-18T00:08:48.103Z,2.42
2015-09-18T00:09:00.509Z,2.44
2015-09-18T00:09:12.918Z,2.48
2015-09-18T00:09:25.340Z,2.47
2015-09-18T00:09:37.746Z,2.47
2015-09-18T00:09:50.136Z,2.44
2015-09-18T00:10:02.545Z,2.44
2015-09-18T00:10:14.951Z,2.44
2015-09-18T00:10:27.342Z,2.45
2015-09-18T00:10:39.763Z,2.38
2015-09-18T00:10:52.185Z,2.44
2015-09-18T00:11:04.594Z,2.4
2015-09-18T00:11:16.984Z,2.38
2015-09-18T00:11:29.390Z,2.36
2015-09-18T00:11:41.797Z,2.4
2015-09-18T00:11:54.203Z,2.48
2015-09-18T00:12:06.610Z,2.38
2015-09-18T00:12:19.032Z,2.38
2015-09-18T00:12:31.282Z,2.45
2015-09-18T00:12:43.673Z,2.42
2015-09-18T00:12:56.063Z,2.4
2015-09-18T00:13:08.519Z,2.4
2015-09-18T00:13:20.941Z,2.4
2015-09-18T00:13:33.348Z,2.38
2015-09-18T00:13:45.754Z,2.4
2015-09-18T00:13:58.144Z,2.38
2015-09-18T00:14:10.553Z,2.27
2015-09-18T00:14:22.959Z,2.3
2015-09-18T00:14:35.350Z,2.29
2015-09-18T00:14:47.787Z,2.34
2015-09-18T00:15:00.193Z,2.3
2015-09-18T00:15:12.601Z,2.23
2015-09-18T00:15:24.991Z,2.22
2015-09-18T00:15:37.397Z,2.12
2015-09-18T00:15:49.804Z,2.18
2015-09-18T00:16:02.194Z,2.08
2015-09-18T00:16:14.619Z,2.12
2015-09-18T00:16:27.041Z,2.12
2015-09-18T00:16:39.432Z,1.94
2015-09-18T00:16:51.838Z,2.05
2015-09-18T00:17:04.229Z,2.15
2015-09-18T00:17:15.918Z,2.01
2015-09-18T00:17:28.340Z,2.02
2015-09-18T00:17:40.746Z,1.98
2015-09-18T00:17:53.168Z,2.06
2015-09-18T00:18:05.559Z,2.01
2015-09-18T00:18:17.966Z,2.04
2015-09-18T00:18:30.216Z,2.02
2015-09-18T00:18:42.607Z,1.9
2015-09-18T00:18:55.028Z,2.02
2015-09-18T00:19:07.450Z,1.94
2015-09-18T00:19:19.844Z,2.04
2015-09-18T00:19:32.250Z,1.86
2015-09-18T00:19:44.656Z,1.94
2015-09-18T00:19:57.047Z,1.87
2015-09-18T00:20:09.438Z,1.97
2015-09-18T00:20:21.158Z,2.02
2015-09-18T00:20:33.565Z,2.02
2015-09-18T00:20:45.971Z,1.87
2015-09-18T00:20:58.205Z,1.94
2015-09-18T00:21:10.612Z,1.98
2015-09-18T00:21:23.020Z,1.84
2015-09-18T00:21:35.426Z,2.02
2015-09-18T00:21:47.832Z,2.01
2015-09-18T00:21:59.520Z,1.93
2015-09-18T00:22:11.926Z,1.94
2015-09-18T00:22:24.334Z,1.97
2015-09-18T00:22:36.741Z,1.97
2015-09-18T00:22:49.131Z,1.97
2015-09-18T00:23:01.537Z,1.93
2015-09-18T00:23:13.959Z,1.94
2015-09-18T00:23:26.367Z,1.98
2015-09-18T00:23:38.757Z,1.98
2015-09-18T00:23:51.163Z,1.98
2015-09-18T00:24:03.554Z,2.02
2015-09-18T00:24:15.960Z,1.97
2015-09-18T00:24:28.385Z,2.04
2015-09-18T00:24:40.776Z,2.01
2015-09-18T00:24:53.182Z,1.98
2015-09-18T00:25:05.573Z,2.01
2015-09-18T00:25:17.979Z,1.94
2015-09-18T00:25:30.371Z,1.98
2015-09-18T00:25:42.777Z,1.98
2015-09-18T00:25:55.199Z,1.98
2015-09-18T00:26:07.605Z,1.94
2015-09-18T00:26:20.011Z,1.97
2015-09-18T00:26:31.701Z,2.02
2015-09-18T00:26:44.091Z,1.98
2015-09-18T00:26:56.513Z,2.01
2015-09-18T00:27:08.935Z,2.01
2015-09-18T00:27:21.341Z,1.94
2015-09-18T00:27:33.750Z,1.94
2015-09-18T00:27:46.140Z,1.93
2015-09-18T00:27:58.546Z,1.87
2015-09-18T00:28:10.937Z,1.93
2015-09-18T00:28:23.343Z,1.82
2015-09-18T00:28:35.768Z,1.9
2015-09-18T00:28:48.174Z,1.86
2015-09-18T00:29:00.565Z,1.84
2015-09-18T00:29:12.253Z,1.86
2015-09-18T00:29:24.643Z,1.89
2015-09-18T00:29:37.050Z,1.93
2015-09-18T00:29:49.457Z,1.89
2015-09-18T00:30:01.160Z,2.01
2015-09-18T00:30:13.425Z,2.04
2015-09-18T00:30:25.675Z,1.94
2015-09-18T00:30:37.927Z,2.05
2015-09-18T00:30:50.349Z,2.11
2015-09-18T00:31:02.771Z,2.11
2015-09-18T00:31:14.881Z,2.11
2015-09-18T00:31:27.193Z,2.11
2015-09-18T00:31:39.289Z,2.05
2015-09-18T00:31:51.383Z,2.12
2015-09-18T00:32:03.617Z,2.16
2015-09-18T00:32:16.023Z,2.2
2015-09-18T00:32:28.429Z,2.18
2015-09-18T00:32:40.838Z,2.15
2015-09-18T00:32:53.119Z,2.18
2015-09-18T00:33:05.385Z,2.2
2015-09-18T00:33:17.760Z,2.15
2015-09-18T00:33:30.166Z,2.18
2015-09-18T00:33:42.558Z,2.22
2015-09-18T00:33:54.980Z,2.22
2015-09-18T00:34:07.387Z,2.24
2015-09-18T00:34:19.793Z,2.27
2015-09-18T00:34:32.183Z,2.22
2015-09-18T00:34:44.592Z,2.22
2015-09-18T00:34:56.982Z,2.22
2015-09-18T00:35:09.248Z,2.15
2015-09-18T00:35:21.654Z,2.24
2015-09-18T00:35:34.076Z,2.2
2015-09-18T00:35:46.469Z,2.26
2015-09-18T00:35:58.859Z,2.26
2015-09-18T00:36:11.266Z,2.23
2015-09-18T00:36:23.656Z,2.22
2015-09-18T00:36:36.109Z,2.18
2015-09-18T00:36:48.533Z,2.18
2015-09-18T00:37:00.971Z,2.15
2015-09-18T00:37:13.424Z,2.22
2015-09-18T00:37:25.969Z,2.24
2015-09-18T00:37:37.500Z,2.09
2015-09-18T00:37:50.549Z,2.18
2015-09-18T00:38:03.065Z,2.13
2015-09-18T00:38:15.330Z,2.16
2015-09-18T00:38:27.611Z,2.18
2015-09-18T00:38:39.690Z,2.16
2015-09-18T00:38:53.275Z,2.18
2015-09-18T00:39:05.682Z,2.15
2015-09-18T00:39:18.088Z,2.13
2015-09-18T00:39:30.510Z,2.16
2015-09-18T00:39:42.994Z,2.15
2015-09-18T00:39:56.028Z,2.13
2015-09-18T00:40:08.698Z,2.24
2015-09-18T00:40:21.823Z,2.18
2015-09-18T00:40:34.729Z,2.22
2015-09-18T00:40:47.637Z,2.22
2015-09-18T00:41:00.090Z,2.22
2015-09-18T00:41:12.481Z,2.18
2015-09-18T00:41:24.871Z,2.18
2015-09-18T00:41:37.278Z,2.13
2015-09-18T00:41:49.701Z,2.18
2015-09-18T00:42:02.092Z,2.11
2015-09-18T00:42:14.545Z,2.22
2015-09-18T00:42:27.092Z,2.22
2015-09-18T00:42:39.530Z,2.27
2015-09-18T00:42:51.953Z,2.24
2015-09-18T00:43:04.407Z,2.26
2015-09-18T00:43:16.875Z,2.26
2015-09-18T00:43:29.360Z,2.18
2015-09-18T00:43:41.766Z,2.26
2015-09-18T00:43:54.268Z,2.27
2015-09-18T00:44:06.659Z,2.27
2015-09-18T00:44:19.049Z,2.27
2015-09-18T00:44:31.471Z,2.22
2015-09-18T00:44:43.862Z,2.27
2015-09-18T00:44:56.301Z,2.34
2015-09-18T00:45:08.707Z,2.29
2015-09-18T00:45:21.098Z,2.33
2015-09-18T00:45:33.489Z,2.36
2015-09-18T00:45:45.895Z,2.33
2015-09-18T00:45:57.615Z,2.29
2015-09-18T00:46:10.037Z,2.34
2015-09-18T00:46:22.443Z,2.38
2015-09-18T00:46:34.880Z,2.4
2015-09-18T00:46:47.318Z,2.41
2015-09-18T00:46:59.758Z,2.41
2015-09-18T00:47:11.477Z,2.42
2015-09-18T00:47:23.946Z,2.4
2015-09-18T00:47:36.415Z,2.41
2015-09-18T00:47:48.805Z,2.42
2015-09-18T00:48:01.212Z,2.44
2015-09-18T00:48:13.603Z,2.42
2015-09-18T00:48:26.009Z,2.47
2015-09-18T00:48:38.259Z,2.42
2015-09-18T00:48:50.666Z,2.4
2015-09-18T00:49:03.058Z,2.45
2015-09-18T00:49:15.464Z,2.47
2015-09-18T00:49:27.855Z,2.47
2015-09-18T00:49:40.321Z,2.4
2015-09-18T00:49:52.727Z,2.42
2015-09-18T00:50:05.151Z,2.44
2015-09-18T00:50:17.573Z,2.42
2015-09-18T00:50:30.010Z,2.42
2015-09-18T00:50:42.432Z,2.44
2015-09-18T00:50:54.729Z,2.45
2015-09-18T00:51:07.169Z,2.44
2015-09-18T00:51:20.856Z,2.45
2015-09-18T00:51:33.262Z,2.41
2015-09-18T00:51:45.653Z,2.42
2015-09-18T00:51:58.077Z,2.44
2015-09-18T00:52:10.483Z,2.36
2015-09-18T00:52:22.889Z,2.4
2015-09-18T00:52:35.311Z,2.38
2015-09-18T00:52:47.030Z,2.24
2015-09-18T00:52:59.455Z,2.27
2015-09-18T00:53:11.908Z,2.33
2015-09-18T00:53:24.346Z,2.34
2015-09-18T00:53:36.736Z,2.34
2015-09-18T00:53:49.189Z,2.3
2015-09-18T00:54:01.597Z,2.27
2015-09-18T00:54:14.003Z,2.38
2015-09-18T00:54:26.393Z,2.24
2015-09-18T00:54:37.972Z,2.33
2015-09-18T00:54:50.378Z,2.27
2015-09-18T00:55:02.770Z,2.3
2015-09-18T00:55:15.192Z,2.27
2015-09-18T00:55:27.599Z,2.29
2015-09-18T00:55:40.005Z,2.3
2015-09-18T00:55:52.427Z,2.24
2015-09-18T00:56:04.866Z,2.36
2015-09-18T00:56:17.288Z,2.3
2015-09-18T00:56:29.726Z,2.3
2015-09-18T00:56:42.163Z,2.27
2015-09-18T00:56:54.554Z,2.34
2015-09-18T00:57:06.946Z,2.29
2015-09-18T00:57:19.337Z,2.33
2015-09-18T00:57:31.743Z,2.31
2015-09-18T00:57:44.134Z,2.3
2015-09-18T00:57:56.540Z,2.29
2015-09-18T00:58:08.948Z,2.3
2015-09-18T00:58:21.355Z,2.3
2015-09-18T00:58:33.745Z,2.36
2015-09-18T00:58:46.167Z,2.34
2015-09-18T00:58:58.573Z,2.3
2015-09-18T00:59:10.982Z,2.42
2015-09-18T00:59:23.403Z,2.38
2015-09-18T00:59:35.825Z,2.4
2015-09-18T00:59:48.247Z,2.38
2015-09-18T01:00:00.685Z,2.33
2015-09-18T01:00:13.077Z,2.4
2015-09-18T01:00:25.468Z,2.36
2015-09-18T01:00:37.859Z,2.42
2015-09-18T01:00:50.265Z,2.47
2015-09-18T01:01:02.671Z,2.44
2015-09-18T01:01:15.064Z,2.4
2015-09-18T01:01:27.314Z,2.38
2015-09-18T01:01:39.704Z,2.41
2015-09-18T01:01:52.111Z,2.42
2015-09-18T01:02:04.517Z,2.42
2015-09-18T01:02:16.925Z,2.38
2015-09-18T01:02:29.347Z,2.38
2015-09-18T01:02:41.769Z,2.4
2015-09-18T01:02:54.206Z,2.44
2015-09-18T01:03:06.644Z,2.38
2015-09-18T01:03:19.083Z,2.33
2015-09-18T01:03:31.521Z,2.38
2015-09-18T01:03:43.911Z,2.48
2015-09-18T01:03:56.318Z,2.41
2015-09-18T01:04:08.708Z,2.41
2015-09-18T01:04:21.116Z,2.41
2015-09-18T01:04:33.506Z,2.4
2015-09-18T01:04:45.928Z,2.42
2015-09-18T01:04:58.334Z,2.47
2015-09-18T01:05:10.741Z,2.41
2015-09-18T01:05:23.134Z,2.47
2015-09-18T01:05:35.556Z,2.42
2015-09-18T01:05:47.962Z,2.4
2015-09-18T01:06:00.212Z,2.44
2015-09-18T01:06:12.634Z,2.45
2015-09-18T01:06:25.057Z,2.38
2015-09-18T01:06:37.510Z,2.38
2015-09-18T01:06:49.932Z,2.4
2015-09-18T01:07:02.385Z,2.36
2015-09-18T01:07:14.776Z,2.45
2015-09-18T01:07:27.169Z,2.45
2015-09-18T01:07:39.576Z,2.45
2015-09-18T01:07:51.982Z,2.51
2015-09-18T01:08:04.373Z,2.49
2015-09-18T01:08:16.764Z,2.47
2015-09-18T01:08:29.170Z,2.52
2015-09-18T01:08:41.561Z,2.42
2015-09-18T01:08:53.967Z,2.51
2015-09-18T01:09:06.374Z,2.55
2015-09-18T01:09:18.783Z,2.52
2015-09-18T01:09:30.486Z,2.41
2015-09-18T01:09:42.923Z,2.47
2015-09-18T01:09:55.345Z,2.58
2015-09-18T01:10:07.767Z,2.52
2015-09-18T01:10:20.160Z,2.45
2015-09-18T01:10:32.410Z,2.58
2015-09-18T01:10:44.800Z,2.58
2015-09-18T01:10:57.238Z,2.44
2015-09-18T01:11:09.644Z,2.49
2015-09-18T01:11:22.036Z,2.59
2015-09-18T01:11:34.426Z,2.59
2015-09-18T01:11:46.833Z,2.52
2015-09-18T01:11:59.223Z,2.51
2015-09-18T01:12:11.630Z,2.48
2015-09-18T01:12:24.039Z,2.42
2015-09-18T01:12:36.445Z,2.48
2015-09-18T01:12:48.898Z,2.59
2015-09-18T01:13:01.320Z,2.6
2015-09-18T01:13:13.758Z,2.58
2015-09-18T01:13:26.197Z,2.51
2015-09-18T01:13:38.619Z,2.48
2015-09-18T01:13:51.010Z,2.48
2015-09-18T01:14:03.416Z,2.45
2015-09-18T01:14:15.822Z,2.45
2015-09-18T01:14:27.512Z,2.41
2015-09-18T01:14:39.902Z,2.4
2015-09-18T01:14:52.340Z,2.42
2015-09-18T01:15:04.730Z,2.51
2015-09-18T01:15:17.137Z,2.42
2015-09-18T01:15:29.544Z,2.55
2015-09-18T01:15:41.966Z,2.45
2015-09-18T01:15:54.372Z,2.42
2015-09-18T01:16:06.778Z,2.42
2015-09-18T01:16:19.200Z,2.42
2015-09-18T01:16:31.640Z,2.54
2015-09-18T01:16:44.061Z,2.47
2015-09-18T01:16:56.499Z,2.41
2015-09-18T01:17:08.936Z,2.42
2015-09-18T01:17:21.343Z,2.41
2015-09-18T01:17:33.735Z,2.38
2015-09-18T01:17:46.142Z,2.44
2015-09-18T01:17:58.548Z,2.44
2015-09-18T01:18:10.938Z,2.42
2015-09-18T01:18:23.329Z,2.44
2015-09-18T01:18:35.737Z,2.42
2015-09-18T01:18:47.972Z,2.41
2015-09-18T01:19:00.378Z,2.42
2015-09-18T01:19:12.769Z,2.45
2015-09-18T01:19:25.190Z,2.45
2015-09-18T01:19:37.599Z,2.36
2015-09-18T01:19:50.052Z,2.45
2015-09-18T01:20:02.489Z,2.44
2015-09-18T01:20:14.927Z,2.41
2015-09-18T01:20:27.317Z,2.36
2015-09-18T01:20:39.710Z,2.42
2015-09-18T01:20:52.116Z,2.41
2015-09-18T01:21:04.523Z,2.48
2015-09-18T01:21:16.913Z,2.41
2015-09-18T01:21:29.304Z,2.44
2015-09-18T01:21:41.712Z,2.4
2015-09-18T01:21:54.118Z,2.4
2015-09-18T01:22:06.525Z,2.44
2015-09-18T01:22:18.931Z,2.44
2015-09-18T01:22:31.323Z,2.38
2015-09-18T01:22:43.027Z,2.42
2015-09-18T01:22:55.433Z,2.36
2015-09-18T01:23:07.855Z,2.41
2015-09-18T01:23:20.292Z,2.4
2015-09-18T01:23:32.732Z,2.48
2015-09-18T01:23:45.154Z,2.38
2015-09-18T01:23:57.560Z,2.4
2015-09-18T01:24:09.950Z,2.42
2015-09-18T01:24:22.357Z,2.47
2015-09-18T01:24:34.748Z,2.34
2015-09-18T01:24:47.139Z,2.4
2015-09-18T01:24:59.545Z,2.4
2015-09-18T01:25:11.951Z,2.47
2015-09-18T01:25:24.358Z,2.38
2015-09-18T01:25:36.750Z,2.41
2015-09-18T01:25:49.172Z,2.36
2015-09-18T01:26:01.578Z,2.48
2015-09-18T01:26:13.985Z,2.45
2015-09-18T01:26:26.422Z,2.41
2015-09-18T01:26:38.847Z,2.42
2015-09-18T01:26:51.269Z,2.47
2015-09-18T01:27:03.691Z,2.48
2015-09-18T01:27:16.081Z,2.44
2015-09-18T01:27:28.488Z,2.38
2015-09-18T01:27:40.879Z,2.41
2015-09-18T01:27:53.286Z,2.45
2015-09-18T01:28:05.692Z,2.45
2015-09-18T01:28:18.098Z,2.38
2015-09-18T01:28:30.504Z,2.47
2015-09-18T01:28:42.913Z,2.44
2015-09-18T01:28:55.319Z,2.42
2015-09-18T01:29:07.725Z,2.36
2015-09-18T01:29:19.991Z,2.44
2015-09-18T01:29:32.413Z,2.42
2015-09-18T01:29:44.868Z,2.48
2015-09-18T01:29:57.290Z,2.4
2015-09-18T01:30:09.680Z,2.45
2015-09-18T01:30:22.071Z,2.42
2015-09-18T01:30:34.477Z,2.47
2015-09-18T01:30:46.168Z,2.41
2015-09-18T01:30:58.574Z,2.45
2015-09-18T01:31:10.964Z,2.47
2015-09-18T01:31:23.371Z,2.41
2015-09-18T01:31:35.761Z,2.48
2015-09-18T01:31:48.169Z,2.38
2015-09-18T01:32:00.575Z,2.52
2015-09-18T01:32:12.981Z,2.41
2015-09-18T01:32:25.387Z,2.42
2015-09-18T01:32:37.809Z,2.47
2015-09-18T01:32:50.233Z,2.44
2015-09-18T01:33:02.671Z,2.45
2015-09-18T01:33:15.108Z,2.45
2015-09-18T01:33:27.561Z,2.42
2015-09-18T01:33:39.967Z,2.45
2015-09-18T01:33:52.361Z,2.44
2015-09-18T01:34:04.767Z,2.47
2015-09-18T01:34:17.158Z,2.52
2015-09-18T01:34:29.564Z,2.47
2015-09-18T01:34:41.970Z,2.48
2015-09-18T01:34:54.378Z,2.44
2015-09-18T01:35:06.065Z,2.42
2015-09-18T01:35:18.456Z,2.42
2015-09-18T01:35:30.862Z,2.49
2015-09-18T01:35:43.268Z,2.44
2015-09-18T01:35:55.678Z,2.45
2015-09-18T01:36:08.115Z,2.42
2015-09-18T01:36:20.537Z,2.44
2015-09-18T01:36:32.959Z,2.42
2015-09-18T01:36:45.414Z,2.36
2015-09-18T01:36:57.836Z,2.33
2015-09-18T01:37:10.226Z,2.45
2015-09-18T01:37:22.617Z,2.48
2015-09-18T01:37:35.023Z,2.36
2015-09-18T01:37:47.431Z,2.45
2015-09-18T01:37:59.821Z,2.44
2015-09-18T01:38:11.509Z,2.48
2015-09-18T01:38:23.931Z,2.44
2015-09-18T01:38:36.321Z,2.45
2015-09-18T01:38:48.714Z,2.42
2015-09-18T01:39:01.136Z,2.45
2015-09-18T01:39:13.558Z,2.38
2015-09-18T01:39:25.261Z,2.4
2015-09-18T01:39:37.683Z,2.36
2015-09-18T01:39:50.122Z,2.44
2015-09-18T01:40:02.388Z,2.45
2015-09-18T01:40:14.778Z,2.45
2015-09-18T01:40:27.185Z,2.45
2015-09-18T01:40:39.575Z,2.47
2015-09-18T01:40:51.983Z,2.4
2015-09-18T01:41:04.374Z,2.42
2015-09-18T01:41:16.812Z,2.42
2015-09-18T01:41:29.202Z,2.4
2015-09-18T01:41:41.593Z,2.42
2015-09-18T01:41:53.985Z,2.44
2015-09-18T01:42:06.392Z,2.47
2015-09-18T01:42:18.814Z,2.41
2015-09-18T01:42:31.220Z,2.38
2015-09-18T01:42:43.657Z,2.48
2015-09-18T01:42:56.081Z,2.36
2015-09-18T01:43:08.503Z,2.38
2015-09-18T01:43:20.894Z,2.44
2015-09-18T01:43:33.316Z,2.38
2015-09-18T01:43:45.722Z,2.4
2015-09-18T01:43:58.114Z,2.4
2015-09-18T01:44:10.521Z,2.38
2015-09-18T01:44:22.911Z,2.41
2015-09-18T01:44:35.318Z,2.38
2015-09-18T01:44:47.708Z,2.42
2015-09-18T01:45:00.116Z,2.48
2015-09-18T01:45:12.523Z,2.44
2015-09-18T01:45:24.929Z,2.36
2015-09-18T01:45:37.335Z,2.42
2015-09-18T01:45:49.757Z,2.44
2015-09-18T01:46:02.197Z,2.48
2015-09-18T01:46:14.634Z,2.34
2015-09-18T01:46:27.056Z,2.4
2015-09-18T01:46:39.462Z,2.42
2015-09-18T01:46:51.853Z,2.42
2015-09-18T01:47:04.245Z,2.44
2015-09-18T01:47:16.652Z,2.41
2015-09-18T01:47:29.042Z,2.4
2015-09-18T01:47:41.449Z,2.4
2015-09-18T01:47:53.839Z,2.47
2015-09-18T01:48:06.246Z,2.33
2015-09-18T01:48:18.637Z,2.45
2015-09-18T01:48:31.059Z,2.4
2015-09-18T01:48:43.450Z,2.4
2015-09-18T01:48:55.871Z,2.44
2015-09-18T01:49:08.296Z,2.44
2015-09-18T01:49:20.703Z,2.4
2015-09-18T01:49:33.140Z,2.4
2015-09-18T01:49:44.859Z,2.36
2015-09-18T01:49:57.267Z,2.4
2015-09-18T01:50:09.658Z,2.38
2015-09-18T01:50:22.048Z,2.44
2015-09-18T01:50:34.439Z,2.38
2015-09-18T01:50:46.830Z,2.41
2015-09-18T01:50:59.238Z,2.4
2015-09-18T01:51:11.628Z,2.4
2015-09-18T01:51:24.035Z,2.33
2015-09-18T01:51:36.425Z,2.38
2015-09-18T01:51:48.863Z,2.36
2015-09-18T01:52:01.271Z,2.31
2015-09-18T01:52:13.677Z,2.34
2015-09-18T01:52:25.380Z,2.36
2015-09-18T01:52:37.818Z,2.3
2015-09-18T01:52:50.271Z,2.31
2015-09-18T01:53:02.694Z,2.27
2015-09-18T01:53:15.116Z,2.26
2015-09-18T01:53:27.506Z,2.33
2015-09-18T01:53:39.913Z,2.27
2015-09-18T01:53:52.319Z,2.24
2015-09-18T01:54:04.712Z,2.26
2015-09-18T01:54:17.118Z,2.33
2015-09-18T01:54:29.524Z,2.34
2015-09-18T01:54:41.930Z,2.34
2015-09-18T01:54:54.337Z,2.38
2015-09-18T01:55:06.730Z,2.3
2015-09-18T01:55:19.152Z,2.31
2015-09-18T01:55:31.558Z,2.27
2015-09-18T01:55:43.980Z,2.31
2015-09-18T01:55:56.402Z,2.31
2015-09-18T01:56:08.856Z,2.34
2015-09-18T01:56:21.294Z,2.41
2015-09-18T01:56:33.731Z,2.4
2015-09-18T01:56:46.184Z,2.34
2015-09-18T01:56:58.575Z,2.4
2015-09-18T01:57:10.968Z,2.34
2015-09-18T01:57:23.374Z,2.4
2015-09-18T01:57:35.764Z,2.36
2015-09-18T01:57:48.155Z,2.27
2015-09-18T01:58:00.577Z,2.36
2015-09-18T01:58:12.970Z,2.31
2015-09-18T01:58:25.360Z,2.27
2015-09-18T01:58:37.766Z,2.3
2015-09-18T01:58:50.173Z,2.3
2015-09-18T01:59:02.579Z,2.27
2015-09-18T01:59:14.987Z,2.29
2015-09-18T01:59:27.409Z,2.34
2015-09-18T01:59:39.831Z,2.27
2015-09-18T01:59:52.284Z,2.29
2015-09-18T02:00:04.675Z,2.29
2015-09-18T02:00:17.068Z,2.34
2015-09-18T02:00:29.475Z,2.31
2015-09-18T02:00:41.865Z,2.33
2015-09-18T02:00:54.256Z,2.38
2015-09-18T02:01:06.662Z,2.26
2015-09-18T02:01:19.069Z,2.31
2015-09-18T02:01:31.460Z,2.26
2015-09-18T02:01:43.851Z,2.27
2015-09-18T02:01:56.257Z,2.3
2015-09-18T02:02:08.663Z,2.31
2015-09-18T02:02:21.087Z,2.31
2015-09-18T02:02:33.493Z,2.3
2015-09-18T02:02:45.915Z,2.33
2015-09-18T02:02:57.618Z,2.29
2015-09-18T02:03:10.071Z,2.38
2015-09-18T02:03:22.464Z,2.27
2015-09-18T02:03:34.855Z,2.33
2015-09-18T02:03:47.245Z,2.23
2015-09-18T02:03:59.636Z,2.33
2015-09-18T02:04:12.042Z,2.24
2015-09-18T02:04:24.435Z,2.34
2015-09-18T02:04:36.841Z,2.27
2015-09-18T02:04:49.232Z,2.27
2015-09-18T02:05:01.638Z,2.26
2015-09-18T02:05:14.028Z,2.2
2015-09-18T02:05:26.452Z,2.26
2015-09-18T02:05:38.859Z,2.27
2015-09-18T02:05:51.265Z,2.22
2015-09-18T02:06:03.702Z,2.3
2015-09-18T02:06:16.140Z,2.34
2015-09-18T02:06:28.579Z,2.3
2015-09-18T02:06:40.986Z,2.31
2015-09-18T02:06:53.407Z,2.29
2015-09-18T02:07:05.798Z,2.31
2015-09-18T02:07:18.189Z,2.29
2015-09-18T02:07:30.597Z,2.26
2015-09-18T02:07:42.988Z,2.27
2015-09-18T02:07:55.378Z,2.3
2015-09-18T02:08:07.800Z,2.23
2015-09-18T02:08:20.206Z,2.26
2015-09-18T02:08:32.614Z,2.29
2015-09-18T02:08:44.879Z,2.27
2015-09-18T02:08:57.317Z,2.2
2015-09-18T02:09:09.739Z,2.3
2015-09-18T02:09:22.210Z,2.22
2015-09-18T02:09:34.648Z,2.2
2015-09-18T02:09:47.038Z,2.27
2015-09-18T02:09:59.445Z,2.3
2015-09-18T02:10:11.835Z,2.27
2015-09-18T02:10:24.228Z,2.22
2015-09-18T02:10:36.634Z,2.15
2015-09-18T02:10:49.025Z,2.24
2015-09-18T02:11:01.415Z,2.26
2015-09-18T02:11:13.665Z,2.29
2015-09-18T02:11:26.058Z,2.24
2015-09-18T02:11:38.308Z,2.22
2015-09-18T02:11:50.730Z,2.24
2015-09-18T02:12:03.121Z,2.31
2015-09-18T02:12:15.542Z,2.3
2015-09-18T02:12:27.966Z,2.27
2015-09-18T02:12:40.388Z,2.2
2015-09-18T02:12:52.826Z,2.24
2015-09-18T02:13:05.263Z,2.24
2015-09-18T02:13:17.685Z,2.24
2015-09-18T02:13:30.078Z,2.2
2015-09-18T02:13:42.484Z,2.3
2015-09-18T02:13:54.875Z,2.3
2015-09-18T02:14:07.265Z,2.27
2015-09-18T02:14:19.671Z,2.27
2015-09-18T02:14:31.361Z,2.3
2015-09-18T02:14:43.752Z,2.23
2015-09-18T02:14:56.142Z,2.24
2015-09-18T02:15:08.533Z,2.3
2015-09-18T02:15:20.955Z,2.29
2015-09-18T02:15:33.378Z,2.27
2015-09-18T02:15:45.799Z,2.31
2015-09-18T02:15:58.221Z,2.27
2015-09-18T02:16:10.659Z,2.26
2015-09-18T02:16:23.096Z,2.26
2015-09-18T02:16:35.552Z,2.27
2015-09-18T02:16:47.974Z,2.26
2015-09-18T02:17:00.365Z,2.29
2015-09-18T02:17:12.615Z,2.26
2015-09-18T02:17:25.006Z,2.27
2015-09-18T02:17:37.414Z,2.26
2015-09-18T02:17:49.804Z,2.27
2015-09-18T02:18:02.211Z,2.27
2015-09-18T02:18:14.601Z,2.24
2015-09-18T02:18:27.008Z,2.29
2015-09-18T02:18:39.416Z,2.26
2015-09-18T02:18:51.838Z,2.24
2015-09-18T02:19:04.228Z,2.31
2015-09-18T02:19:16.650Z,2.3
2015-09-18T02:19:29.072Z,2.27
2015-09-18T02:19:41.354Z,2.23
2015-09-18T02:19:53.792Z,2.27
2015-09-18T02:20:06.245Z,2.33
2015-09-18T02:20:17.948Z,2.23
2015-09-18T02:20:29.479Z,2.31
2015-09-18T02:20:41.888Z,2.3
2015-09-18T02:20:54.278Z,2.3
2015-09-18T02:21:06.684Z,2.26
2015-09-18T02:21:19.075Z,2.23
2015-09-18T02:21:31.481Z,2.33
2015-09-18T02:21:43.186Z,2.26
2015-09-18T02:21:55.577Z,2.31
2015-09-18T02:22:08.015Z,2.23
2015-09-18T02:22:20.436Z,2.27
2015-09-18T02:22:32.843Z,2.34
2015-09-18T02:22:45.268Z,2.36
2015-09-18T02:22:57.705Z,2.27
2015-09-18T02:23:10.127Z,2.27
2015-09-18T02:23:22.564Z,2.31
2015-09-18T02:23:34.971Z,2.26
2015-09-18T02:23:47.362Z,2.26
2015-09-18T02:23:59.769Z,2.24
2015-09-18T02:24:12.175Z,2.2
2015-09-18T02:24:24.565Z,2.26
2015-09-18T02:24:36.972Z,2.18
2015-09-18T02:24:49.365Z,2.29
2015-09-18T02:25:01.772Z,2.24
2015-09-18T02:25:14.162Z,2.18
2015-09-18T02:25:26.553Z,2.18
2015-09-18T02:25:38.975Z,2.13
2015-09-18T02:25:51.382Z,2.16
2015-09-18T02:26:03.788Z,2.15
2015-09-18T02:26:15.507Z,2.13
2015-09-18T02:26:27.929Z,2.24
2015-09-18T02:26:40.384Z,2.15
2015-09-18T02:26:52.806Z,2.12
2015-09-18T02:27:05.228Z,2.11
2015-09-18T02:27:17.618Z,2.18
2015-09-18T02:27:30.025Z,2.09
2015-09-18T02:27:42.433Z,2.01
2015-09-18T02:27:54.683Z,2.09
2015-09-18T02:28:07.073Z,2.12
2015-09-18T02:28:19.480Z,2.05
2015-09-18T02:28:31.870Z,2.11
2015-09-18T02:28:44.279Z,2.11
2015-09-18T02:28:56.685Z,2.06
2015-09-18T02:29:09.091Z,2.02
2015-09-18T02:29:21.497Z,2.04
2015-09-18T02:29:33.919Z,2.01
2015-09-18T02:29:46.343Z,2.01
2015-09-18T02:29:58.765Z,1.93
2015-09-18T02:30:11.187Z,2.01
2015-09-18T02:30:23.593Z,1.9
2015-09-18T02:30:35.984Z,1.98
2015-09-18T02:30:48.376Z,1.93
2015-09-18T02:31:00.861Z,1.94
2015-09-18T02:31:13.251Z,1.97
2015-09-18T02:31:25.642Z,1.93
2015-09-18T02:31:38.033Z,1.87
2015-09-18T02:31:50.441Z,1.9
2015-09-18T02:32:02.863Z,1.93
2015-09-18T02:32:15.269Z,1.92
2015-09-18T02:32:27.691Z,1.86
2015-09-18T02:32:40.128Z,1.92
2015-09-18T02:32:52.568Z,1.87
2015-09-18T02:33:04.865Z,1.89
2015-09-18T02:33:17.287Z,1.9
2015-09-18T02:33:29.708Z,1.89
2015-09-18T02:33:42.099Z,1.89
2015-09-18T02:33:54.335Z,1.86
2015-09-18T02:34:06.742Z,1.92
2015-09-18T02:34:19.132Z,1.92
2015-09-18T02:34:31.523Z,1.84
2015-09-18T02:34:43.929Z,1.92
2015-09-18T02:34:56.322Z,1.92
2015-09-18T02:35:08.728Z,1.89
2015-09-18T02:35:21.134Z,1.83
2015-09-18T02:35:33.541Z,1.94
2015-09-18T02:35:45.947Z,1.94
2015-09-18T02:35:58.386Z,1.93
2015-09-18T02:36:10.808Z,1.86
2015-09-18T02:36:23.230Z,1.9
2015-09-18T02:36:35.652Z,1.93
2015-09-18T02:36:48.089Z,2.01
2015-09-18T02:37:00.482Z,1.98
2015-09-18T02:37:12.170Z,1.92
2015-09-18T02:37:24.560Z,2.01
2015-09-18T02:37:36.966Z,2.06
2015-09-18T02:37:48.670Z,2.02
2015-09-18T02:38:01.062Z,1.94
2015-09-18T02:38:13.500Z,1.94
2015-09-18T02:38:25.906Z,1.93
2015-09-18T02:38:38.312Z,1.94
2015-09-18T02:38:50.734Z,2.01
2015-09-18T02:39:03.174Z,1.98
2015-09-18T02:39:15.595Z,2.01
2015-09-18T02:39:28.049Z,2.02
2015-09-18T02:39:40.470Z,2.11
2015-09-18T02:39:52.877Z,2.01
2015-09-18T02:40:05.268Z,2.11
2015-09-18T02:40:17.659Z,2.16
2015-09-18T02:40:30.065Z,2.02
2015-09-18T02:40:42.456Z,2.01
2015-09-18T02:40:54.143Z,2.15
2015-09-18T02:41:06.553Z,2.05
2015-09-18T02:41:18.959Z,2.05
2015-09-18T02:41:31.349Z,2.01
2015-09-18T02:41:43.771Z,2.13
2015-09-18T02:41:56.178Z,2.09
2015-09-18T02:42:08.601Z,2.04
2015-09-18T02:42:21.039Z,2.05
2015-09-18T02:42:33.476Z,2.01
2015-09-18T02:42:45.898Z,2.02
2015-09-18T02:42:58.320Z,2.02
2015-09-18T02:43:10.759Z,2.09
2015-09-18T02:43:23.149Z,2.02
2015-09-18T02:43:35.540Z,1.97
2015-09-18T02:43:47.946Z,2.06
2015-09-18T02:44:00.352Z,2.05
2015-09-18T02:44:12.761Z,1.98
2015-09-18T02:44:25.151Z,2.11
2015-09-18T02:44:37.558Z,2.08
2015-09-18T02:44:49.964Z,2.11
2015-09-18T02:45:02.354Z,2.11
2015-09-18T02:45:14.764Z,2.08
2015-09-18T02:45:27.186Z,2.09